Time;durP1;ratioP1;P1;durP2;ratioP2;P2;SDS_P1;SDS_P2;PMS_P1;PMS_P2;Temp;Humidity;BMP_temperature;BMP_pressure;BME280_temperature;BME280_humidity;BME280_pressure;Samples;Min_cycle;Max_cycle;Signal;HPM_P1;HPM_P2
2023/05/24 00:01:58;;;;;;;16.30;6.17;;;;;;;11.82;69.08;101940.06;6047881;29;20265;-77
2023/05/24 00:05:20;;;;;;;11.47;4.97;;;;;;;11.91;69.67;101937.50;6055276;29;20233;-77
2023/05/24 00:08:41;;;;;;;18.63;6.50;;;;;;;11.76;69.86;101921.63;6057682;29;20272;-76
2023/05/24 00:12:02;;;;;;;10.97;5.27;;;;;;;11.86;70.43;101931.63;6048330;29;20250;-77
2023/05/24 00:15:23;;;;;;;10.90;5.73;;;;;;;11.93;69.99;101926.59;6047955;29;20241;-78
2023/05/24 00:18:45;;;;;;;13.60;6.53;;;;;;;11.92;69.72;101920.34;6058048;29;20237;-76
2023/05/24 00:22:06;;;;;;;12.20;5.17;;;;;;;11.83;69.50;101915.63;6045280;29;20241;-77
2023/05/24 00:25:27;;;;;;;8.73;5.33;;;;;;;11.91;70.05;101913.19;6053821;29;20324;-76
2023/05/24 00:28:48;;;;;;;7.53;3.90;;;;;;;11.86;70.00;101917.25;6041728;29;20236;-77
2023/05/24 00:32:09;;;;;;;10.50;5.73;;;;;;;12.00;70.14;101923.28;6042642;29;20229;-77
2023/05/24 00:35:32;;;;;;;13.67;5.27;;;;;;;11.86;70.40;101915.41;6039513;29;20240;-77
2023/05/24 00:38:53;;;;;;;13.77;6.97;;;;;;;11.88;70.07;101910.75;6046581;29;20604;-77
2023/05/24 00:42:14;;;;;;;8.73;5.17;;;;;;;11.86;70.61;101909.13;6037759;29;20229;-76
2023/05/24 00:45:35;;;;;;;16.67;5.90;;;;;;;11.80;70.03;101909.63;6054028;29;20312;-76
2023/05/24 00:48:57;;;;;;;10.63;4.03;;;;;;;11.89;69.80;101900.81;6060423;29;20250;-76
2023/05/24 00:52:20;;;;;;;25.70;8.17;;;;;;;11.88;70.66;101910.75;6051215;29;20237;-77
2023/05/24 00:55:41;;;;;;;14.17;6.07;;;;;;;11.82;70.12;101904.94;6055311;29;20221;-78
2023/05/24 00:59:02;;;;;;;17.67;7.43;;;;;;;11.96;70.38;101905.59;6059522;29;20336;-78
2023/05/24 01:02:24;;;;;;;12.57;5.77;;;;;;;11.86;70.51;101907.31;6043450;29;20268;-76
2023/05/24 01:05:45;;;;;;;25.50;6.20;;;;;;;11.72;71.24;101902.09;6039365;29;20558;-76
2023/05/24 01:09:20;;;;;;;14.73;6.63;;;;;;;11.68;71.03;101899.75;6048955;29;20261;-77
2023/05/24 01:12:52;;;;;;;12.50;5.00;;;;;;;11.76;71.54;101903.59;6012039;29;20233;-75
2023/05/24 01:16:20;;;;;;;11.87;5.47;;;;;;;11.61;72.18;101893.94;6048451;29;20265;-76
2023/05/24 01:19:52;;;;;;;15.87;5.97;;;;;;;11.65;71.89;101886.44;6056588;29;20233;-75
2023/05/24 01:23:24;;;;;;;10.53;4.60;;;;;;;11.75;72.67;101882.09;6063198;29;20237;-75
2023/05/24 01:26:56;;;;;;;17.53;7.17;;;;;;;11.73;72.31;101884.03;6050068;29;20557;-75
2023/05/24 01:30:17;;;;;;;12.83;5.37;;;;;;;11.79;72.14;101878.16;6037701;29;20229;-76
2023/05/24 01:33:41;;;;;;;12.57;5.70;;;;;;;11.83;72.11;101882.34;6058662;29;20245;-76
2023/05/24 01:37:05;;;;;;;13.93;5.43;;;;;;;11.74;72.88;101886.66;6046478;29;20238;-76
2023/05/24 01:40:26;;;;;;;15.13;6.10;;;;;;;11.85;71.63;101889.34;6045325;29;23031;-76
2023/05/24 01:44:00;;;;;;;13.07;5.10;;;;;;;11.84;72.00;101879.53;6045163;29;20264;-75
2023/05/24 01:47:34;;;;;;;19.53;5.87;;;;;;;11.85;72.11;101886.66;6053054;29;20233;-76
2023/05/24 01:50:58;;;;;;;11.33;6.30;;;;;;;11.92;72.54;101889.75;6049970;29;20229;-76
2023/05/24 01:54:23;;;;;;;19.50;5.37;;;;;;;11.83;72.10;101877.81;6061961;29;20245;-76
2023/05/24 01:57:46;;;;;;;11.83;6.30;;;;;;;12.05;72.84;101882.41;6031896;29;20403;-76
2023/05/24 02:01:09;;;;;;;12.83;6.50;;;;;;;12.06;71.56;101884.09;6043671;29;20308;-76
2023/05/24 02:04:31;;;;;;;18.70;6.70;;;;;;;12.11;71.48;101881.91;6058075;29;20301;-76
2023/05/24 02:07:52;;;;;;;11.23;5.63;;;;;;;12.00;71.64;101879.19;6050388;29;20513;-76
2023/05/24 02:11:13;;;;;;;17.93;6.47;;;;;;;12.14;72.51;101884.34;6048711;29;20252;-75
2023/05/24 02:14:36;;;;;;;21.33;7.83;;;;;;;12.22;72.38;101879.22;6059089;29;20431;-76
2023/05/24 02:18:00;;;;;;;13.57;5.37;;;;;;;12.23;71.73;101880.94;6026336;29;20233;-77
2023/05/24 02:21:22;;;;;;;9.97;5.20;;;;;;;12.19;72.01;101884.00;6049579;29;20614;-76
2023/05/24 02:24:42;;;;;;;12.70;6.40;;;;;;;12.04;72.93;101878.84;6059393;29;20244;-76
2023/05/24 02:28:03;;;;;;;8.27;5.20;;;;;;;12.07;73.40;101885.84;6044028;29;20237;-76
2023/05/24 02:31:27;;;;;;;10.13;5.57;;;;;;;12.26;73.26;101877.13;6051734;29;20232;-76
2023/05/24 02:34:49;;;;;;;17.23;5.33;;;;;;;12.03;72.48;101881.66;6062298;29;20237;-77
2023/05/24 02:38:10;;;;;;;19.17;6.50;;;;;;;11.94;73.25;101888.66;6052679;29;20241;-76
2023/05/24 02:41:31;;;;;;;11.87;6.50;;;;;;;12.04;73.37;101883.38;6050337;29;20240;-75
2023/05/24 02:44:52;;;;;;;19.50;6.93;;;;;;;12.13;73.83;101888.06;6060923;29;20234;-76
2023/05/24 02:48:13;;;;;;;10.03;6.47;;;;;;;12.16;74.33;101887.78;6063061;29;20257;-76
2023/05/24 02:51:35;;;;;;;20.57;6.27;;;;;;;12.16;74.04;101882.38;6048471;29;20234;-76
2023/05/24 02:54:57;;;;;;;15.00;5.57;;;;;;;12.29;74.21;101883.16;6046440;29;21006;-76
2023/05/24 02:58:17;;;;;;;15.37;6.47;;;;;;;12.13;74.51;101881.78;6062949;29;20228;-76
2023/05/24 03:01:41;;;;;;;18.70;5.83;;;;;;;12.08;74.78;101874.03;6031880;29;20242;-76
2023/05/24 03:05:02;;;;;;;12.97;6.53;;;;;;;12.12;74.42;101882.78;6055480;29;20237;-76
2023/05/24 03:08:25;;;;;;;17.57;6.00;;;;;;;11.97;74.77;101874.88;6052188;29;20612;-77
2023/05/24 03:11:48;;;;;;;6.67;5.20;;;;;;;12.02;75.29;101874.53;6045883;29;20331;-76
2023/05/24 03:15:10;;;;;;;14.27;6.67;;;;;;;12.09;75.52;101877.59;6043463;29;20241;-76
2023/05/24 03:18:33;;;;;;;22.20;6.97;;;;;;;12.07;75.57;101868.75;6058376;29;20230;-75
2023/05/24 03:21:54;;;;;;;12.63;4.77;;;;;;;12.13;75.87;101866.44;6049340;29;20230;-76
2023/05/24 03:25:16;;;;;;;16.70;6.73;;;;;;;11.91;75.97;101863.72;6033212;29;20234;-75
2023/05/24 03:28:37;;;;;;;9.63;5.60;;;;;;;11.89;75.87;101855.72;6049659;29;20257;-76
2023/05/24 03:31:59;;;;;;;11.87;5.90;;;;;;;11.92;76.66;101862.72;6025210;29;20251;-76
2023/05/24 03:35:20;;;;;;;12.57;6.90;;;;;;;12.04;76.54;101869.84;6039337;29;20241;-75
2023/05/24 03:38:42;;;;;;;16.30;6.60;;;;;;;12.20;76.80;101870.38;6056395;29;20619;-76
2023/05/24 03:42:04;;;;;;;12.93;6.73;;;;;;;12.22;77.53;101865.72;6051755;29;20691;-76
2023/05/24 03:45:25;;;;;;;9.97;5.17;;;;;;;12.26;77.08;101860.91;6048998;29;20581;-76
2023/05/24 03:48:46;;;;;;;21.97;5.77;;;;;;;12.21;76.79;101869.38;6053710;29;20233;-76
2023/05/24 03:52:08;;;;;;;11.07;5.60;;;;;;;12.20;77.54;101874.91;6045844;29;20245;-76
2023/05/24 03:55:29;;;;;;;16.57;6.17;;;;;;;12.10;77.41;101879.34;6038041;29;21204;-77
2023/05/24 03:58:52;;;;;;;10.23;5.80;;;;;;;12.26;77.04;101883.41;6046132;29;20555;-76
2023/05/24 04:02:14;;;;;;;19.20;8.93;;;;;;;12.17;77.33;101885.97;6037251;29;20328;-76
2023/05/24 04:05:35;;;;;;;14.80;6.80;;;;;;;12.22;78.04;101890.03;6052074;29;20253;-75
2023/05/24 04:08:56;;;;;;;13.50;6.63;;;;;;;12.11;77.90;101883.75;6046819;29;20249;-76
2023/05/24 04:12:18;;;;;;;15.87;6.57;;;;;;;12.08;79.03;101881.31;6054038;29;20221;-76
2023/05/24 04:15:40;;;;;;;18.30;5.57;;;;;;;12.06;79.38;101878.69;6049979;29;20230;-76
2023/05/24 04:19:02;;;;;;;8.53;5.53;;;;;;;12.10;79.58;101890.16;6055786;29;20324;-76
2023/05/24 04:22:23;;;;;;;12.03;6.03;;;;;;;12.26;80.48;101885.25;6300555;23;20316;-77
2023/05/24 04:25:44;;;;;;;10.90;6.10;;;;;;;12.10;80.70;101880.19;6039882;29;20607;-76
2023/05/24 04:29:06;;;;;;;12.17;6.13;;;;;;;12.27;81.31;101882.41;6062665;29;20233;-76
2023/05/24 04:32:29;;;;;;;15.00;6.47;;;;;;;12.13;81.16;101887.19;6046529;29;20638;-76
2023/05/24 04:35:51;;;;;;;15.30;7.07;;;;;;;12.16;82.39;101886.97;6053637;29;20310;-75
2023/05/24 04:39:12;;;;;;;15.60;6.60;;;;;;;11.78;82.70;101888.13;6061245;29;20225;-77
2023/05/24 04:42:33;;;;;;;13.10;6.80;;;;;;;11.58;84.29;101891.47;6046826;29;20233;-75
2023/05/24 04:45:54;;;;;;;13.23;5.33;;;;;;;11.71;85.62;101904.91;6052292;29;20229;-76
2023/05/24 04:49:16;;;;;;;6.80;5.27;;;;;;;11.75;85.25;101903.69;6052923;29;20225;-74
2023/05/24 04:52:37;;;;;;;10.37;5.60;;;;;;;11.87;85.76;101903.59;6043222;29;20228;-74
2023/05/24 04:55:58;;;;;;;11.83;5.60;;;;;;;11.98;85.57;101913.59;6041596;29;20264;-74
2023/05/24 04:59:19;;;;;;;9.27;5.50;;;;;;;12.16;86.30;101908.59;6066781;29;20232;-74
2023/05/24 05:02:40;;;;;;;19.60;6.83;;;;;;;11.92;85.84;101908.66;6050140;29;20233;-74
2023/05/24 05:06:03;;;;;;;12.87;7.40;;;;;;;12.17;86.73;101913.00;6057243;29;20234;-74
2023/05/24 05:09:24;;;;;;;20.47;6.53;;;;;;;11.85;86.36;101912.81;6064069;29;20241;-75
2023/05/24 05:12:45;;;;;;;14.33;6.03;;;;;;;11.95;86.50;101928.19;6057236;29;20324;-74
2023/05/24 05:16:06;;;;;;;9.97;4.97;;;;;;;12.00;86.98;101925.13;6055862;29;20618;-75
2023/05/24 05:19:27;;;;;;;10.37;4.73;;;;;;;12.04;86.49;101922.06;6066107;29;20237;-75
2023/05/24 05:22:49;;;;;;;17.90;5.77;;;;;;;12.11;87.00;101933.28;6040625;29;23679;-74
2023/05/24 05:26:10;;;;;;;14.23;6.23;;;;;;;12.09;87.21;101929.81;6030008;29;20325;-75
2023/05/24 05:29:31;;;;;;;13.83;6.40;;;;;;;11.99;87.11;101928.84;6046142;29;20238;-75
2023/05/24 05:32:52;;;;;;;8.47;4.57;;;;;;;12.03;87.48;101916.81;6025560;29;20237;-74
2023/05/24 05:36:12;;;;;;;7.97;5.07;;;;;;;12.00;86.96;101917.03;6028640;29;20234;-73
2023/05/24 05:39:34;;;;;;;12.97;7.33;;;;;;;12.11;87.42;101918.88;6039325;29;20234;-74
2023/05/24 05:42:55;;;;;;;7.23;6.03;;;;;;;12.24;87.49;101923.22;6024130;29;20269;-73
2023/05/24 05:46:18;;;;;;;11.47;6.63;;;;;;;12.13;87.17;101927.75;6028573;29;20624;-74
2023/05/24 05:49:39;;;;;;;12.87;5.60;;;;;;;12.28;87.08;101922.00;6038972;29;20265;-74
2023/05/24 05:53:00;;;;;;;12.10;5.27;;;;;;;12.34;87.24;101932.31;6031003;29;20385;-75
2023/05/24 05:56:22;;;;;;;12.93;6.67;;;;;;;12.25;87.63;101940.28;6030037;29;20600;-74
2023/05/24 05:59:43;;;;;;;21.53;7.33;;;;;;;12.38;86.99;101941.91;6031450;29;20225;-74
2023/05/24 06:03:04;;;;;;;10.57;6.00;;;;;;;12.41;86.65;101947.06;6046735;29;20235;-74
2023/05/24 06:06:24;;;;;;;10.17;6.23;;;;;;;12.17;87.15;101951.72;6034267;29;20233;-75
2023/05/24 06:09:45;;;;;;;9.60;5.90;;;;;;;12.25;86.47;101957.38;6049141;29;20242;-75
2023/05/24 06:13:07;;;;;;;14.67;6.20;;;;;;;12.30;86.55;101963.28;6041163;29;20242;-75
2023/05/24 06:16:28;;;;;;;10.93;5.93;;;;;;;12.18;86.98;101963.41;6033300;29;20238;-74
2023/05/24 06:19:50;;;;;;;22.23;7.33;;;;;;;12.20;86.51;101958.72;6028097;29;20234;-74
2023/05/24 06:23:11;;;;;;;10.23;6.13;;;;;;;12.33;86.90;101968.44;6048241;29;20254;-74
2023/05/24 06:26:32;;;;;;;21.03;6.43;;;;;;;12.40;87.36;101958.88;6034630;29;20654;-75
2023/05/24 06:29:54;;;;;;;11.53;7.23;;;;;;;12.63;86.65;101960.63;6048124;29;20328;-73
2023/05/24 06:33:15;;;;;;;20.77;8.53;;;;;;;12.76;86.99;101965.91;6051468;29;20586;-74
2023/05/24 06:36:40;;;;;;;15.20;7.00;;;;;;;12.78;86.18;101972.91;6031509;29;20315;-74
2023/05/24 06:40:00;;;;;;;29.20;8.43;;;;;;;12.76;86.08;101974.88;6038021;29;20230;-75
2023/05/24 06:43:21;;;;;;;10.77;6.63;;;;;;;13.08;85.38;101988.53;6040175;29;20233;-73
2023/05/24 06:46:43;;;;;;;10.37;6.37;;;;;;;13.22;84.75;101990.13;6035779;29;20234;-73
2023/05/24 06:50:05;;;;;;;15.70;8.00;;;;;;;13.35;84.00;101993.56;6033887;29;20237;-74
2023/05/24 06:53:26;;;;;;;21.00;8.33;;;;;;;13.43;83.56;101994.59;6047426;29;20233;-75
2023/05/24 06:56:46;;;;;;;11.33;5.97;;;;;;;13.59;82.93;101997.78;6033669;29;20246;-75
2023/05/24 07:00:11;;;;;;;14.37;6.97;;;;;;;13.78;81.86;102007.06;6034572;29;20249;-75
2023/05/24 07:03:33;;;;;;;12.17;6.60;;;;;;;14.10;81.56;101992.50;6026120;29;20523;-73
2023/05/24 07:06:53;;;;;;;13.60;6.83;;;;;;;14.20;80.70;102000.72;6041540;29;20245;-74
2023/05/24 07:10:14;;;;;;;15.20;6.47;;;;;;;13.97;80.03;102004.53;6039856;29;20249;-74
2023/05/24 07:13:36;;;;;;;14.17;6.90;;;;;;;13.95;79.51;102014.66;6046459;29;20246;-74
2023/05/24 07:16:58;;;;;;;23.23;14.33;;;;;;;13.79;79.56;102011.53;6037618;29;20233;-75
2023/05/24 07:20:20;;;;;;;12.97;7.40;;;;;;;13.88;79.89;102014.31;6045769;29;20230;-73
2023/05/24 07:23:41;;;;;;;14.73;6.63;;;;;;;13.91;79.42;102021.31;6052768;29;20233;-74
2023/05/24 07:27:03;;;;;;;11.63;5.93;;;;;;;13.97;78.97;102009.97;6042527;29;20265;-74
2023/05/24 07:30:24;;;;;;;14.10;6.27;;;;;;;13.81;78.54;102010.38;6027046;29;20317;-75
2023/05/24 07:33:45;;;;;;;26.13;6.27;;;;;;;14.12;78.45;102005.94;6055043;29;20226;-75
2023/05/24 07:37:08;;;;;;;11.60;5.67;;;;;;;14.10;77.68;102006.06;6045185;29;20241;-74
2023/05/24 07:40:29;;;;;;;19.27;6.47;;;;;;;14.10;77.46;102011.47;6039814;29;20233;-75
2023/05/24 07:43:50;;;;;;;15.33;6.90;;;;;;;13.93;77.74;102020.22;6051589;29;20234;-76
2023/05/24 07:47:10;;;;;;;14.77;6.50;;;;;;;13.93;78.33;102022.06;6042239;29;20229;-74
2023/05/24 07:50:32;;;;;;;22.60;7.80;;;;;;;14.03;78.15;102029.28;6041717;29;20241;-74
2023/05/24 07:53:54;;;;;;;13.73;5.73;;;;;;;13.97;78.37;102026.22;6052012;29;20604;-74
2023/05/24 07:57:14;;;;;;;13.97;7.37;;;;;;;13.94;78.05;102024.63;6044326;29;20321;-74
2023/05/24 08:00:35;;;;;;;12.90;6.13;;;;;;;13.99;78.42;102033.25;6041209;29;20643;-75
2023/05/24 08:03:56;;;;;;;15.90;5.60;;;;;;;13.98;78.13;102036.94;6049987;29;20620;-74
2023/05/24 08:07:17;;;;;;;14.60;6.43;;;;;;;14.22;78.13;102029.44;6038637;29;20342;-74
2023/05/24 08:10:39;;;;;;;26.90;8.00;;;;;;;14.29;77.71;102038.78;6040960;29;20604;-75
2023/05/24 08:14:00;;;;;;;12.73;5.63;;;;;;;14.16;77.73;102046.22;6053768;29;20237;-75
2023/05/24 08:17:21;;;;;;;16.10;6.70;;;;;;;14.31;77.64;102042.22;6041651;29;20226;-75
2023/05/24 08:20:42;;;;;;;13.30;5.90;;;;;;;14.26;77.52;102044.47;6031789;29;20246;-74
2023/05/24 08:24:03;;;;;;;13.63;6.40;;;;;;;13.93;77.86;102041.03;6031727;29;20234;-74
2023/05/24 08:27:27;;;;;;;27.67;7.60;;;;;;;14.07;78.15;102052.44;6029370;29;20238;-74
2023/05/24 08:30:48;;;;;;;10.10;6.13;;;;;;;14.24;78.60;102053.72;6038555;29;20242;-75
2023/05/24 08:34:09;;;;;;;16.93;6.17;;;;;;;14.29;78.71;102046.94;6038994;29;20622;-75
2023/05/24 08:37:32;;;;;;;14.43;6.53;;;;;;;14.27;78.28;102051.59;6031621;29;20222;-75
2023/05/24 08:40:52;;;;;;;13.33;5.43;;;;;;;14.32;78.35;102059.38;6038660;29;20234;-74
2023/05/24 08:44:15;;;;;;;13.00;5.47;;;;;;;14.59;78.09;102065.13;6051944;29;20332;-75
2023/05/24 08:47:37;;;;;;;12.17;5.37;;;;;;;14.89;77.64;102058.91;6029851;29;21762;-74
2023/05/24 08:50:59;;;;;;;12.40;5.97;;;;;;;14.99;77.09;102066.09;6038159;29;20238;-75
2023/05/24 08:54:20;;;;;;;11.87;5.07;;;;;;;14.97;76.42;102064.50;6051611;29;20230;-75
2023/05/24 08:57:42;;;;;;;12.83;6.27;;;;;;;15.12;75.59;102065.88;6038972;29;20580;-74
2023/05/24 09:01:06;;;;;;;7.10;4.40;;;;;;;15.32;74.08;102073.09;6036829;29;20639;-75
2023/05/24 09:04:27;;;;;;;13.00;5.33;;;;;;;15.42;73.41;102073.97;6051460;29;20229;-75
2023/05/24 09:07:49;;;;;;;10.67;5.93;;;;;;;15.55;73.01;102069.19;6037123;29;20229;-75
2023/05/24 09:11:11;;;;;;;12.17;5.57;;;;;;;15.96;71.74;102066.25;6029522;29;20333;-75
2023/05/24 09:14:32;;;;;;;11.07;4.97;;;;;;;16.54;70.11;102064.41;6038873;29;20257;-75
2023/05/24 09:17:54;;;;;;;7.63;4.77;;;;;;;16.58;69.27;102073.16;6030092;29;20234;-75
2023/05/24 09:21:16;;;;;;;16.30;5.30;;;;;;;16.88;68.02;102069.34;6023788;29;20343;-74
2023/05/24 09:24:41;;;;;;;12.93;4.60;;;;;;;17.51;66.37;102074.88;6042987;29;20238;-74
2023/05/24 09:28:06;;;;;;;4.37;3.63;;;;;;;17.44;64.26;102072.84;6040933;29;20511;-75
2023/05/24 09:31:34;;;;;;;6.07;2.93;;;;;;;17.80;62.59;102077.41;6031799;29;20233;-73
2023/05/24 09:34:58;;;;;;;7.33;4.17;;;;;;;17.57;62.07;102078.84;6050504;29;20227;-75
2023/05/24 09:38:19;;;;;;;9.03;4.47;;;;;;;17.64;61.81;102088.16;6050705;29;20233;-74
2023/05/24 09:41:43;;;;;;;5.20;4.33;;;;;;;17.30;61.53;102090.56;6033914;29;20234;-74
2023/05/24 09:45:07;;;;;;;11.17;4.93;;;;;;;17.38;61.84;102079.78;6034287;29;20563;-74
2023/05/24 09:48:28;;;;;;;8.73;4.43;;;;;;;16.99;61.69;102082.81;6043300;29;25922;-74
2023/05/24 09:51:52;;;;;;;7.47;6.17;;;;;;;16.99;61.79;102090.97;6037413;29;20320;-74
2023/05/24 09:55:13;;;;;;;7.70;4.30;;;;;;;16.73;62.22;102088.88;6037608;29;20249;-75
2023/05/24 09:58:35;;;;;;;5.67;3.77;;;;;;;16.66;62.56;102089.63;6041148;29;20244;-75
2023/05/24 10:02:09;;;;;;;6.33;3.70;;;;;;;16.79;62.79;102090.19;6033180;29;20253;-75
2023/05/24 10:05:30;;;;;;;7.97;2.90;;;;;;;16.63;63.10;102092.63;6031129;29;20325;-74
2023/05/24 10:08:54;;;;;;;8.77;4.40;;;;;;;16.50;63.22;102100.25;6050738;29;20256;-75
2023/05/24 10:12:15;;;;;;;11.50;3.87;;;;;;;16.44;63.41;102098.91;6039268;29;20240;-75
2023/05/24 10:15:36;;;;;;;10.10;3.63;;;;;;;16.60;63.94;102101.09;6038680;29;20238;-75
2023/05/24 10:18:57;;;;;;;7.13;4.07;;;;;;;16.63;62.98;102092.63;6048731;29;20316;-73
2023/05/24 10:22:21;;;;;;;8.43;4.23;;;;;;;16.62;63.33;102099.97;6038306;29;20245;-75
2023/05/24 10:25:50;;;;;;;7.97;3.60;;;;;;;16.78;62.73;102099.34;6030403;29;20242;-75
2023/05/24 10:29:24;;;;;;;12.47;4.37;;;;;;;17.17;62.15;102094.63;6057955;29;20232;-75
2023/05/24 10:32:47;;;;;;;12.03;4.30;;;;;;;17.14;62.47;102101.25;6038356;29;20279;-77
2023/05/24 10:36:11;;;;;;;10.03;5.53;;;;;;;17.50;61.59;102096.84;6037443;29;20619;-76
2023/05/24 10:39:33;;;;;;;12.53;4.33;;;;;;;18.02;60.75;102109.72;6050391;29;20237;-74
2023/05/24 10:42:55;;;;;;;6.73;3.83;;;;;;;18.34;59.14;102112.78;6033359;29;20508;-74
2023/05/24 10:46:16;;;;;;;6.70;3.30;;;;;;;18.89;58.27;102107.13;6042577;29;20237;-75
2023/05/24 10:49:38;;;;;;;6.78;3.63;;;;;;;18.81;57.09;102104.34;6049678;29;20249;-75
2023/05/24 10:53:11;;;;;;;14.30;4.75;;;;;;;19.33;56.73;102103.31;6040626;29;20230;-75
2023/05/24 10:56:40;;;;;;;10.27;3.80;;;;;;;18.89;57.29;102099.81;6033606;29;20275;-76
2023/05/24 11:00:27;;;;;;;4.80;3.63;;;;;;;18.77;57.50;102108.41;6039405;29;20236;-74
2023/05/24 11:03:48;;;;;;;7.30;3.73;;;;;;;18.44;58.25;102107.25;6047678;29;20229;-75
2023/05/24 11:07:10;;;;;;;11.57;10.07;;;;;;;17.97;58.81;102105.75;6041753;29;20281;-75
2023/05/24 11:10:31;;;;;;;11.03;7.17;;;;;;;17.74;59.49;102104.44;6040171;29;20320;-75
2023/05/24 11:13:56;;;;;;;10.18;4.45;;;;;;;17.52;59.76;102103.84;6045039;29;20230;-77
2023/05/24 11:17:19;;;;;;;14.60;4.15;;;;;;;16.89;61.38;102101.91;6037753;29;20242;-75
2023/05/24 11:20:42;;;;;;;8.80;5.57;;;;;;;16.60;62.24;102096.53;6043985;29;20236;-75
2023/05/24 11:24:03;;;;;;;8.23;4.67;;;;;;;16.64;62.21;102103.38;6050279;29;20230;-75
2023/05/24 11:27:24;;;;;;;8.77;3.80;;;;;;;17.37;61.69;102104.47;6037154;29;20230;-75
2023/05/24 11:30:46;;;;;;;4.10;3.70;;;;;;;17.65;60.58;102099.94;6037391;29;20257;-75
2023/05/24 11:34:11;;;;;;;6.87;3.60;;;;;;;17.85;59.37;102099.66;6049899;29;20273;-75
2023/05/24 11:37:32;;;;;;;6.10;3.57;;;;;;;17.81;58.90;102111.03;6035012;29;20237;-74
2023/05/24 11:40:53;;;;;;;5.53;2.87;;;;;;;18.00;58.74;102113.63;6041005;29;20234;-75
2023/05/24 11:44:18;;;;;;;5.40;2.65;;;;;;;18.10;57.99;102109.81;6050230;29;20238;-75
2023/05/24 11:47:39;;;;;;;5.53;2.90;;;;;;;18.52;57.10;102111.97;6036471;29;20238;-76
2023/05/24 11:51:04;;;;;;;7.60;3.63;;;;;;;18.88;56.02;102110.88;6034089;29;20277;-75
2023/05/24 11:54:27;;;;;;;7.87;3.00;;;;;;;18.80;55.93;102105.34;6049222;29;20230;-76
2023/05/24 11:57:54;;;;;;;7.93;4.27;;;;;;;18.79;56.18;102118.19;6036545;29;20600;-75
2023/05/24 12:01:26;;;;;;;6.47;4.07;;;;;;;18.37;56.30;102117.09;6040315;29;20241;-75
2023/05/24 12:04:46;;;;;;;5.67;3.40;;;;;;;18.16;57.28;102116.53;6050239;29;20229;-75
2023/05/24 12:08:11;;;;;;;8.00;3.53;;;;;;;18.06;58.25;102127.53;6049332;29;21023;-76
2023/05/24 12:11:33;;;;;;;5.67;3.03;;;;;;;17.69;58.67;102129.44;6030130;29;20689;-75
2023/05/24 12:14:56;;;;;;;7.95;4.65;;;;;;;17.78;59.15;102127.69;6035830;29;20230;-75
2023/05/24 12:18:20;;;;;;;9.20;5.40;;;;;;;17.77;59.07;102137.75;6048605;29;20299;-74
2023/05/24 12:21:41;;;;;;;7.63;6.60;;;;;;;17.67;58.04;102126.00;6045636;29;20903;-74
2023/05/24 12:25:05;;;;;;;9.60;5.63;;;;;;;17.93;58.18;102137.94;6042758;29;20241;-75
2023/05/24 12:28:28;;;;;;;7.40;3.67;;;;;;;17.36;58.88;102136.31;6049881;29;20261;-73
2023/05/24 12:31:50;;;;;;;7.53;3.83;;;;;;;17.35;60.03;102134.63;6034160;29;20619;-75
2023/05/24 12:35:11;;;;;;;6.57;3.40;;;;;;;18.26;59.00;102136.41;6040456;29;20241;-75
2023/05/24 12:38:32;;;;;;;6.90;4.17;;;;;;;18.96;57.15;102138.28;6051154;29;20233;-75
2023/05/24 12:41:55;;;;;;;10.73;4.23;;;;;;;19.31;55.70;102138.19;6036336;29;20544;-74
2023/05/24 12:45:21;;;;;;;5.18;4.20;;;;;;;19.08;55.06;102142.47;6042374;29;20234;-76
2023/05/24 12:48:42;;;;;;;7.47;3.95;;;;;;;18.27;55.44;102149.06;6042371;29;20324;-75
2023/05/24 12:52:04;;;;;;;8.05;3.60;;;;;;;18.64;56.48;102148.94;6037875;29;20560;-76
2023/05/24 12:55:27;;;;;;;8.27;4.80;;;;;;;18.12;57.65;102146.00;6048229;29;20237;-75
2023/05/24 12:58:49;;;;;;;6.40;3.57;;;;;;;17.63;59.70;102148.31;6047234;29;20235;-75
2023/05/24 13:02:10;;;;;;;8.37;3.30;;;;;;;17.33;61.12;102146.69;6041489;29;20242;-76
2023/05/24 13:05:31;;;;;;;10.47;5.67;;;;;;;17.49;61.47;102141.44;6041309;29;20237;-74
2023/05/24 13:08:52;;;;;;;6.57;4.53;;;;;;;17.79;60.82;102143.06;6050466;29;20233;-75
2023/05/24 13:12:13;;;;;;;5.63;3.63;;;;;;;17.89;60.77;102144.72;6038302;29;20233;-76
2023/05/24 13:15:36;;;;;;;7.00;4.40;;;;;;;17.79;61.00;102152.09;6026086;29;20262;-75
2023/05/24 13:18:57;;;;;;;6.40;3.47;;;;;;;18.13;60.60;102138.66;6046419;29;20238;-75
2023/05/24 13:22:18;;;;;;;6.63;3.33;;;;;;;18.58;59.30;102144.09;6039279;29;20545;-75
2023/05/24 13:25:39;;;;;;;6.00;2.80;;;;;;;18.67;59.03;102140.44;6043105;29;20261;-75
2023/05/24 13:29:00;;;;;;;6.80;3.10;;;;;;;18.79;58.02;102142.78;6050456;29;20254;-74
2023/05/24 13:32:22;;;;;;;6.82;4.05;;;;;;;19.00;57.50;102145.97;6041632;29;20760;-75
2023/05/24 13:35:43;;;;;;;9.83;4.73;;;;;;;18.91;57.95;102144.22;6031874;29;20242;-75
2023/05/24 13:39:06;;;;;;;9.52;4.18;;;;;;;18.48;58.59;102146.06;6047294;29;20253;-75
2023/05/24 13:42:27;;;;;;;7.25;3.30;;;;;;;18.51;58.84;102143.88;6022615;29;20254;-75
2023/05/24 13:45:48;;;;;;;6.53;3.92;;;;;;;18.80;58.57;102143.59;6030648;29;20257;-75
2023/05/24 13:49:10;;;;;;;7.30;3.50;;;;;;;18.71;58.23;102145.41;6052848;29;20328;-75
2023/05/24 13:52:31;;;;;;;10.67;4.63;;;;;;;18.89;58.08;102127.13;6035729;29;20244;-74
2023/05/24 13:55:52;;;;;;;5.40;3.57;;;;;;;18.76;57.25;102134.88;6041189;29;20237;-75
2023/05/24 13:59:13;;;;;;;5.88;4.18;;;;;;;19.00;56.87;102128.75;6051897;29;20237;-75
2023/05/24 14:02:34;;;;;;;8.68;4.70;;;;;;;19.21;56.52;102131.97;6031408;29;20237;-75
2023/05/24 14:05:56;;;;;;;10.45;5.40;;;;;;;19.58;56.05;102128.94;6034020;29;20234;-75
2023/05/24 14:09:19;;;;;;;7.15;3.97;;;;;;;18.90;55.71;102128.81;6047469;29;20241;-75
2023/05/24 14:12:41;;;;;;;6.47;2.97;;;;;;;19.45;55.35;102128.53;6025806;29;20684;-73
2023/05/24 14:16:02;;;;;;;9.45;3.75;;;;;;;18.57;55.89;102129.59;6026061;29;20249;-74
2023/05/24 14:19:22;;;;;;;11.93;3.58;;;;;;;18.88;55.30;102125.41;6053573;29;20671;-74
2023/05/24 14:22:44;;;;;;;7.47;4.70;;;;;;;19.29;54.50;102132.00;6033250;29;20230;-74
2023/05/24 14:26:05;;;;;;;5.47;3.28;;;;;;;19.74;53.79;102134.47;6032797;29;20229;-74
2023/05/24 14:29:26;;;;;;;7.68;3.17;;;;;;;19.37;55.43;102145.75;6048242;29;20229;-74
2023/05/24 14:32:47;;;;;;;6.18;4.10;;;;;;;19.19;57.08;102146.81;6032190;29;20229;-73
2023/05/24 14:36:08;;;;;;;14.52;4.90;;;;;;;18.66;58.71;102139.56;6033472;29;20233;-74
2023/05/24 14:39:30;;;;;;;11.02;5.13;;;;;;;18.19;60.83;102138.06;6045891;29;20359;-75
2023/05/24 14:42:51;;;;;;;12.30;4.95;;;;;;;17.71;61.32;102141.06;6040316;29;20234;-74
2023/05/24 14:46:12;;;;;;;13.68;5.18;;;;;;;17.69;61.35;102139.53;6035000;29;20233;-74
2023/05/24 14:49:33;;;;;;;11.05;5.65;;;;;;;18.16;61.16;102149.28;6048190;29;20264;-75
2023/05/24 14:52:53;;;;;;;9.30;4.53;;;;;;;18.29;61.28;102155.25;6032332;29;20221;-75
2023/05/24 14:56:15;;;;;;;10.13;4.57;;;;;;;18.41;61.52;102150.38;6034192;29;20565;-74
2023/05/24 14:59:36;;;;;;;11.52;5.30;;;;;;;18.28;61.67;102159.81;6030196;29;20241;-74
2023/05/24 15:02:57;;;;;;;5.95;4.28;;;;;;;18.67;60.66;102157.66;6029965;29;20229;-74
2023/05/24 15:06:18;;;;;;;10.57;5.07;;;;;;;18.59;60.91;102163.06;6039186;29;20620;-74
2023/05/24 15:09:38;;;;;;;6.45;4.38;;;;;;;18.54;60.94;102154.50;6043719;29;20258;-75
2023/05/24 15:13:02;;;;;;;15.25;5.00;;;;;;;18.31;61.53;102155.94;6036754;29;20238;-74
2023/05/24 15:16:23;;;;;;;7.45;4.32;;;;;;;18.42;61.54;102154.84;6036559;29;20332;-74
2023/05/24 15:19:44;;;;;;;11.18;4.97;;;;;;;18.17;62.21;102153.72;6036530;29;20242;-74
2023/05/24 15:23:05;;;;;;;14.32;4.38;;;;;;;18.20;62.75;102159.75;6036817;29;20257;-74
2023/05/24 15:26:26;;;;;;;6.30;5.10;;;;;;;18.16;62.25;102152.00;6039446;29;20234;-75
2023/05/24 15:29:48;;;;;;;23.92;5.10;;;;;;;18.22;62.47;102154.13;6048833;29;20234;-74
2023/05/24 15:33:09;;;;;;;10.65;4.88;;;;;;;18.23;62.00;102155.84;6048182;29;20238;-73